Time;durP1;ratioP1;P1;durP2;ratioP2;P2;SDS_P1;SDS_P2;PMS_P1;PMS_P2;Temp;Humidity;BMP_temperature;BMP_pressure;BME280_temperature;BME280_humidity;BME280_pressure;Samples;Min_cycle;Max_cycle;Signal;HPM_P1;HPM_P2
2022/09/23 00:01:00;;;;;;;;;21.00;19.00;;;;;18.19;59.93;98922.28;4983761;28;103717;-57
2022/09/23 00:03:29;;;;;;;;;20.75;20.25;;;;;18.19;60.11;98916.00;4975958;28;102397;-57
2022/09/23 00:06:00;;;;;;;;;19.75;18.25;;;;;18.18;59.95;98911.59;4970328;28;108885;-57
2022/09/23 00:08:27;;;;;;;;;21.00;18.33;;;;;18.17;60.33;98918.97;4990796;27;103866;-57
2022/09/23 00:10:54;;;;;;;;;18.00;17.50;;;;;18.17;60.52;98905.28;4979593;28;102417;-57
2022/09/23 00:13:24;;;;;;;;;21.75;18.00;;;;;18.16;60.15;98897.31;4979262;28;103787;-57
2022/09/23 00:15:51;;;;;;;;;26.50;20.00;;;;;18.15;60.14;98909.34;4987138;28;104182;-57
2022/09/23 00:18:19;;;;;;;;;23.00;17.00;;;;;18.14;60.33;98902.22;4983500;28;102115;-57
2022/09/23 00:20:46;;;;;;;;;18.75;17.75;;;;;18.13;60.06;98903.28;4988067;28;102577;-57
2022/09/23 00:23:13;;;;;;;;;16.33;15.00;;;;;18.13;59.87;98897.81;4989159;28;102277;-57
2022/09/23 00:25:40;;;;;;;;;16.50;15.50;;;;;18.11;60.29;98899.94;4981704;28;103701;-57
2022/09/23 00:28:07;;;;;;;;;22.50;18.50;;;;;18.10;60.77;98901.84;4982283;27;102392;-57
2022/09/23 00:30:34;;;;;;;;;19.50;18.25;;;;;18.11;60.37;98891.72;4983092;27;103524;-56
2022/09/23 00:33:01;;;;;;;;;19.00;16.00;;;;;18.10;60.45;98890.09;4982593;28;102650;-57
2022/09/23 00:35:28;;;;;;;;;22.00;19.25;;;;;18.08;60.57;98893.06;4986395;28;104060;-57
2022/09/23 00:37:55;;;;;;;;;18.00;18.00;;;;;18.09;60.72;98882.94;4984115;28;102252;-57
2022/09/23 00:40:22;;;;;;;;;17.25;17.00;;;;;18.10;60.08;98881.88;4984765;28;103069;-57
2022/09/23 00:42:50;;;;;;;;;18.00;17.00;;;;;18.08;60.70;98887.59;4981400;28;102284;-57
2022/09/23 00:45:18;;;;;;;;;18.25;17.25;;;;;18.08;60.78;98892.22;4985406;28;104061;-57
2022/09/23 00:47:50;;;;;;;;;17.25;16.25;;;;;18.07;60.59;98885.09;4974828;28;102197;-57
2022/09/23 00:50:33;;;;;;;;;20.75;18.25;;;;;18.07;60.57;98887.81;4961560;28;102243;-57
2022/09/23 00:53:03;;;;;;;;;17.50;16.50;;;;;18.06;61.23;98884.25;4979663;28;102400;-57
2022/09/23 00:55:45;;;;;;;;;18.75;16.25;;;;;18.05;61.07;98884.50;4977237;28;104068;-58
2022/09/23 00:58:13;;;;;;;;;17.25;17.25;;;;;18.04;60.90;98880.09;4978359;28;102282;-57
2022/09/23 01:00:41;;;;;;;;;19.75;18.25;;;;;18.03;60.85;98867.50;4978455;28;102504;-57
2022/09/23 01:03:08;;;;;;;;;15.50;15.50;;;;;18.02;61.10;98884.97;4977173;28;102793;-57
2022/09/23 01:05:35;;;;;;;;;20.75;19.25;;;;;18.01;60.28;98875.94;4984752;28;105535;-57
2022/09/23 01:08:14;;;;;;;;;16.50;16.00;;;;;18.03;61.30;98883.91;4964798;28;102278;-57
2022/09/23 01:11:14;;;;;;;;;19.00;18.25;;;;;18.02;60.50;98882.25;4982117;28;102415;-57
2022/09/23 01:14:20;;;;;;;;;20.25;17.00;;;;;18.02;60.19;98874.03;4982575;28;102387;-57
2022/09/23 01:17:32;;;;;;;;;19.00;16.67;;;;;18.02;60.74;98876.75;4979582;28;111030;-57
2022/09/23 01:20:32;;;;;;;;;21.50;17.00;;;;;18.01;61.23;98872.41;4977542;28;103266;-57
2022/09/23 01:23:40;;;;;;;;;17.50;16.75;;;;;18.00;60.39;98874.28;4971159;28;102674;-57
2022/09/23 01:26:55;;;;;;;;;16.67;16.67;;;;;17.99;61.09;98877.25;4979886;28;103348;-57
2022/09/23 01:29:40;;;;;;;;;16.00;15.75;;;;;17.99;60.73;98882.72;4988282;28;109287;-57
2022/09/23 01:32:30;;;;;;;;;15.75;15.50;;;;;17.97;61.06;98877.50;4962605;28;102349;-57
2022/09/23 01:34:59;;;;;;;;;21.67;17.67;;;;;17.97;61.28;98876.66;4984574;28;102489;-57
2022/09/23 01:37:47;;;;;;;;;13.67;13.67;;;;;17.95;60.93;98879.66;4994957;28;102508;-57
2022/09/23 01:40:22;;;;;;;;;16.00;15.00;;;;;17.95;60.59;98871.44;4972757;28;108795;-57
2022/09/23 01:42:52;;;;;;;;;17.00;16.75;;;;;17.95;61.00;98878.81;4987029;28;102444;-57
2022/09/23 01:45:42;;;;;;;;;19.75;17.00;;;;;17.94;61.43;98871.69;4984569;28;102338;-57
2022/09/23 01:48:21;;;;;;;;;15.50;12.75;;;;;17.94;61.43;98874.41;4995806;27;102536;-57
2022/09/23 01:51:01;;;;;;;;;16.75;16.25;;;;;17.92;60.99;98876.56;4984440;28;104174;-57
2022/09/23 01:53:43;;;;;;;;;17.33;16.67;;;;;17.93;61.37;98867.28;4970582;28;102189;-57
2022/09/23 01:56:19;;;;;;;;;19.25;17.50;;;;;17.93;60.97;98867.28;4978537;28;102283;-57
2022/09/23 01:59:25;;;;;;;;;16.00;14.75;;;;;17.93;60.79;98864.53;4984515;28;102611;-56
2022/09/23 02:02:00;;;;;;;;;17.75;17.00;;;;;17.93;61.32;98870.00;4947906;28;108532;-57
2022/09/23 02:04:43;;;;;;;;;17.25;16.00;;;;;17.91;60.48;98875.75;4987585;28;102279;-57
2022/09/23 02:07:43;;;;;;;;;17.00;16.25;;;;;17.92;61.03;98882.06;4976997;28;102490;-57
2022/09/23 02:10:14;;;;;;;;;20.75;17.50;;;;;17.92;61.32;98871.09;4976112;27;102618;-57
2022/09/23 02:12:41;;;;;;;;;19.75;17.00;;;;;17.90;61.34;98871.34;4984470;28;104097;-57
2022/09/23 02:15:10;;;;;;;;;18.00;16.00;;;;;17.91;61.38;98869.44;4988733;28;102358;-58
2022/09/23 02:17:53;;;;;;;;;12.50;11.25;;;;;17.89;61.35;98866.94;4974111;28;103526;-58
2022/09/23 02:20:33;;;;;;;;;17.50;17.50;;;;;17.89;61.55;98871.56;4957563;28;102470;-57
2022/09/23 02:23:07;;;;;;;;;19.75;16.75;;;;;17.88;60.56;98856.25;4966683;28;108708;-58
2022/09/23 02:25:38;;;;;;;;;20.75;19.00;;;;;17.88;60.89;98853.50;4973741;28;104287;-57
2022/09/23 02:28:10;;;;;;;;;17.00;15.75;;;;;17.88;59.97;98853.50;4973328;28;102167;-58
2022/09/23 02:30:55;;;;;;;;;16.25;15.25;;;;;17.88;61.08;98859.00;4981709;28;103209;-58
2022/09/23 02:33:35;;;;;;;;;18.25;14.75;;;;;17.87;60.46;98860.06;4972963;27;104063;-57
2022/09/23 02:36:24;;;;;;;;;18.50;16.25;;;;;17.88;60.61;98864.47;4987426;28;102486;-58
2022/09/23 02:38:56;;;;;;;;;17.25;15.50;;;;;17.87;60.91;98862.78;4979660;28;103510;-57
2022/09/23 02:41:31;;;;;;;;;20.25;15.50;;;;;17.87;60.51;98860.88;4985093;28;102599;-57
2022/09/23 02:44:07;;;;;;;;;8.00;8.00;;;;;17.87;60.86;98868.25;4983171;28;109251;-58
2022/09/23 02:46:34;;;;;;;;;14.50;11.50;;;;;17.85;60.87;98865.75;4972548;28;102393;-58
2022/09/23 02:49:23;;;;;;;;;16.00;14.00;;;;;17.84;60.16;98867.66;4983581;28;102502;-57
2022/09/23 02:51:50;;;;;;;;;17.25;15.00;;;;;17.84;60.47;98862.19;4971605;28;102995;-57
2022/09/23 02:54:19;;;;;;;;;16.25;14.75;;;;;17.83;60.27;98863.25;4981198;28;104028;-57
2022/09/23 02:56:48;;;;;;;;;8.25;5.00;;;;;17.84;60.55;98867.66;4985751;28;103819;-57
2022/09/23 02:59:18;;;;;;;;;14.75;14.75;;;;;17.83;60.46;98865.97;4975278;28;103045;-57
2022/09/23 03:01:48;;;;;;;;;19.25;17.00;;;;;17.83;60.76;98865.97;4960450;28;102278;-57
2022/09/23 03:04:28;;;;;;;;;18.33;15.00;;;;;17.82;60.50;98861.63;4976810;28;103723;-57
2022/09/23 03:07:18;;;;;;;;;17.00;16.00;;;;;17.81;60.60;98870.88;4970363;28;102508;-57
2022/09/23 03:10:08;;;;;;;;;14.00;13.25;;;;;17.80;60.21;98863.75;4981579;28;102202;-57
2022/09/23 03:12:41;;;;;;;;;12.33;11.00;;;;;17.80;60.78;98862.91;4967191;28;102575;-57
2022/09/23 03:15:34;;;;;;;;;16.50;15.50;;;;;17.80;60.92;98858.28;4948547;28;105257;-57
2022/09/23 03:18:04;;;;;;;;;15.75;14.25;;;;;17.80;60.50;98866.47;4972388;28;102235;-57
2022/09/23 03:20:35;;;;;;;;;14.33;14.33;;;;;17.80;59.90;98857.44;4980172;28;102564;-57
2022/09/23 03:23:05;;;;;;;;;19.00;16.25;;;;;17.79;59.90;98863.97;4975819;28;111854;-58
2022/09/23 03:25:35;;;;;;;;;15.75;11.50;;;;;17.78;59.58;98865.91;4971524;28;108865;-58
2022/09/23 03:28:02;;;;;;;;;14.75;14.00;;;;;17.79;59.44;98861.25;4976853;28;109741;-58
2022/09/23 03:30:29;;;;;;;;;18.00;18.00;;;;;17.77;60.03;98858.75;4960738;28;102164;-57
2022/09/23 03:32:56;;;;;;;;;16.75;14.25;;;;;17.77;61.42;98858.75;4980039;28;102658;-57
2022/09/23 03:35:23;;;;;;;;;15.75;14.25;;;;;17.76;60.36;98862.56;4973111;27;104123;-57
2022/09/23 03:37:56;;;;;;;;;13.25;12.00;;;;;17.77;60.08;98863.41;4949664;28;102759;-57
2022/09/23 03:40:31;;;;;;;;;11.75;11.50;;;;;17.76;60.50;98862.56;4972576;28;102160;-57
2022/09/23 03:43:00;;;;;;;;;14.75;14.50;;;;;17.74;60.19;98861.97;4982755;28;102592;-57
2022/09/23 03:45:30;;;;;;;;;15.25;13.75;;;;;17.75;60.83;98860.91;4976125;28;104028;-57
2022/09/23 03:47:57;;;;;;;;;17.00;14.50;;;;;17.73;60.13;98849.38;4973680;28;102250;-57
2022/09/23 03:50:24;;;;;;;;;14.00;13.00;;;;;17.73;60.12;98848.53;4983674;27;102439;-57
2022/09/23 03:52:51;;;;;;;;;16.75;15.25;;;;;17.73;60.15;98854.00;4961199;28;103710;-57
2022/09/23 03:55:18;;;;;;;;;13.25;12.50;;;;;17.72;60.67;98844.97;4956642;28;103842;-57
2022/09/23 03:57:45;;;;;;;;;12.67;11.67;;;;;17.72;60.52;98849.59;4984781;28;102510;-57
2022/09/23 04:00:13;;;;;;;;;17.00;15.00;;;;;17.72;60.04;98855.91;4978794;28;102644;-57
2022/09/23 04:02:40;;;;;;;;;14.00;12.00;;;;;17.72;59.49;98861.38;4983859;28;102540;-57
2022/09/23 04:05:07;;;;;;;;;15.25;14.75;;;;;17.72;60.06;98853.19;4978048;28;103670;-56
2022/09/23 04:07:34;;;;;;;;;14.75;14.00;;;;;17.71;60.35;98856.97;4980267;28;102663;-57
2022/09/23 04:10:01;;;;;;;;;11.50;10.25;;;;;17.72;60.52;98860.56;4978996;28;102549;-57
2022/09/23 04:12:28;;;;;;;;;14.50;14.00;;;;;17.70;60.20;98855.31;4988834;28;102395;-57
2022/09/23 04:14:55;;;;;;;;;13.00;12.50;;;;;17.70;60.19;98858.03;4982292;27;104195;-57
2022/09/23 04:17:22;;;;;;;;;15.00;13.75;;;;;17.69;60.62;98858.31;4980804;28;103763;-57
2022/09/23 04:19:49;;;;;;;;;13.00;12.33;;;;;17.69;60.00;98859.13;4987233;27;102327;-57
2022/09/23 04:22:16;;;;;;;;;13.67;13.00;;;;;17.69;60.38;98858.31;4970659;28;102543;-57
2022/09/23 04:24:43;;;;;;;;;15.00;12.00;;;;;17.69;60.58;98861.88;4987280;28;103784;-57
2022/09/23 04:27:10;;;;;;;;;15.50;14.50;;;;;17.68;60.74;98857.47;4991436;28;102150;-57
2022/09/23 04:29:37;;;;;;;;;16.75;14.00;;;;;17.67;60.72;98853.06;4978319;28;102535;-57
2022/09/23 04:32:04;;;;;;;;;14.75;14.75;;;;;17.68;60.50;98851.16;4984246;28;102155;-57
2022/09/23 04:34:31;;;;;;;;;13.75;13.25;;;;;17.67;60.01;98850.34;4994999;28;108764;-57
2022/09/23 04:36:58;;;;;;;;;14.75;13.00;;;;;17.67;59.73;98850.34;4976868;28;102484;-57
2022/09/23 04:39:25;;;;;;;;;17.50;15.50;;;;;17.66;59.68;98851.41;4983537;28;102456;-57
2022/09/23 04:41:52;;;;;;;;;14.75;13.00;;;;;17.66;60.63;98850.56;4992165;28;102167;-56
2022/09/23 04:44:20;;;;;;;;;13.00;11.75;;;;;17.66;60.02;98850.56;4995769;28;104215;-56
2022/09/23 04:46:48;;;;;;;;;13.25;12.25;;;;;17.65;59.68;98857.94;4987408;28;102263;-57
2022/09/23 04:49:15;;;;;;;;;14.75;14.75;;;;;17.65;60.03;98860.66;4981369;28;102629;-57
2022/09/23 04:51:42;;;;;;;;;13.75;13.00;;;;;17.65;59.26;98860.66;4993554;27;102613;-56
2022/09/23 04:54:10;;;;;;;;;15.50;12.00;;;;;17.65;59.28;98860.66;4990128;28;104090;-57
2022/09/23 04:56:38;;;;;;;;;15.75;14.00;;;;;17.66;59.42;98866.97;4989679;27;102563;-57
2022/09/23 04:59:06;;;;;;;;;12.25;11.50;;;;;17.63;59.97;98854.63;4978794;28;102231;-56
2022/09/23 05:01:33;;;;;;;;;14.00;13.33;;;;;17.63;59.43;98862.00;4990156;28;102357;-56
2022/09/23 05:04:04;;;;;;;;;14.00;11.50;;;;;17.62;59.82;98854.84;4988263;28;109699;-56
2022/09/23 05:06:34;;;;;;;;;15.33;13.67;;;;;17.61;59.41;98862.22;4989411;27;102152;-56
2022/09/23 05:09:01;;;;;;;;;13.75;12.00;;;;;17.61;59.79;98856.75;4990029;28;104298;-56
2022/09/23 05:11:29;;;;;;;;;16.00;13.50;;;;;17.59;60.31;98856.19;4992682;28;102545;-56
2022/09/23 05:13:56;;;;;;;;;11.33;11.00;;;;;17.59;59.86;98850.72;4976056;28;104199;-56
2022/09/23 05:16:23;;;;;;;;;16.00;13.33;;;;;17.60;60.28;98867.94;4983087;28;102101;-56
2022/09/23 05:18:50;;;;;;;;;13.00;13.00;;;;;17.58;59.81;98859.09;4984381;28;102106;-57
2022/09/23 05:21:22;;;;;;;;;15.25;13.50;;;;;17.58;59.37;98870.91;4982693;28;102172;-57
2022/09/23 05:23:52;;;;;;;;;13.50;12.75;;;;;17.57;59.96;98869.22;4989162;27;104079;-57
2022/09/23 05:26:19;;;;;;;;;12.75;12.00;;;;;17.58;59.20;98870.91;4991529;27;102559;-57
2022/09/23 05:28:46;;;;;;;;;13.67;11.00;;;;;17.56;59.23;98867.53;4981677;28;102346;-57
2022/09/23 05:31:15;;;;;;;;;11.50;8.00;;;;;17.58;59.66;98862.72;4989787;28;102275;-56
2022/09/23 05:33:53;;;;;;;;;12.50;11.75;;;;;17.58;59.85;98870.03;4987755;28;104074;-57
2022/09/23 05:36:20;;;;;;;;;11.25;11.25;;;;;17.57;60.05;98874.69;4981470;28;102263;-57
2022/09/23 05:38:50;;;;;;;;;12.00;11.25;;;;;17.57;59.58;98871.94;4994034;27;102460;-57
2022/09/23 05:41:19;;;;;;;;;15.00;14.00;;;;;17.57;60.41;98880.16;4986186;28;102416;-57
2022/09/23 05:43:46;;;;;;;;;15.00;13.33;;;;;17.56;60.22;98877.69;4985154;28;104354;-57
2022/09/23 05:46:17;;;;;;;;;13.75;10.25;;;;;17.56;60.21;98878.47;4982692;28;102316;-57
2022/09/23 05:48:46;;;;;;;;;13.00;12.00;;;;;17.55;59.84;98876.00;4983926;28;102444;-57
2022/09/23 05:51:16;;;;;;;;;13.50;13.25;;;;;17.54;59.48;98877.91;5005583;27;102486;-57
2022/09/23 05:53:44;;;;;;;;;14.75;13.75;;;;;17.54;59.28;98877.06;4996412;28;104250;-57
2022/09/23 05:56:11;;;;;;;;;17.00;14.50;;;;;17.55;60.21;98876.00;4965496;28;102493;-57
2022/09/23 05:58:39;;;;;;;;;14.00;12.33;;;;;17.53;59.93;98872.66;4992317;28;102210;-57
2022/09/23 06:01:13;;;;;;;;;15.67;12.00;;;;;17.53;59.48;98875.41;4993080;28;104397;-59
2022/09/23 06:03:40;;;;;;;;;11.75;11.50;;;;;17.53;59.71;98878.13;4986115;28;104080;-57
2022/09/23 06:06:11;;;;;;;;;12.50;12.00;;;;;17.52;60.02;98877.28;4973473;28;102542;-58
2022/09/23 06:08:38;;;;;;;;;12.00;11.50;;;;;17.53;59.82;98872.66;4983803;27;102364;-57
2022/09/23 06:11:06;;;;;;;;;16.25;13.00;;;;;17.53;60.18;98878.13;4997330;27;102334;-57
2022/09/23 06:13:37;;;;;;;;;13.00;12.75;;;;;17.53;59.58;98876.22;4970311;28;108902;-57
2022/09/23 06:16:08;;;;;;;;;9.50;9.00;;;;;17.54;60.01;98868.88;4978369;28;102477;-57
2022/09/23 06:18:37;;;;;;;;;15.67;12.33;;;;;17.54;59.48;98880.63;4987322;28;102665;-57
2022/09/23 06:21:04;;;;;;;;;14.33;13.00;;;;;17.53;59.71;98884.44;4990703;28;102505;-57
2022/09/23 06:23:31;;;;;;;;;14.00;12.33;;;;;17.54;59.61;98877.91;4981951;27;108821;-57
2022/09/23 06:26:04;;;;;;;;;14.00;13.00;;;;;17.55;59.66;98885.03;4990211;28;102774;-57
2022/09/23 06:28:32;;;;;;;;;14.00;12.50;;;;;17.54;59.63;98882.53;4985885;28;102570;-57
2022/09/23 06:30:59;;;;;;;;;14.00;13.00;;;;;17.54;60.20;98882.53;4978939;28;103302;-57
2022/09/23 06:33:26;;;;;;;;;11.25;11.25;;;;;17.53;60.35;98887.16;4973299;28;106053;-57
2022/09/23 06:36:04;;;;;;;;;11.50;10.75;;;;;17.53;59.58;98883.59;4972142;28;103652;-57
2022/09/23 06:38:32;;;;;;;;;16.50;12.75;;;;;17.52;59.59;98884.66;4958110;28;104440;-57
2022/09/23 06:41:00;;;;;;;;;13.50;12.75;;;;;17.52;60.16;98893.69;4978319;28;102667;-57
2022/09/23 06:43:27;;;;;;;;;14.50;12.00;;;;;17.51;60.37;98892.06;4981304;28;105169;-57
2022/09/23 06:45:59;;;;;;;;;13.50;11.50;;;;;17.52;59.98;98898.34;4985698;28;102197;-58
2022/09/23 06:48:26;;;;;;;;;10.00;8.67;;;;;17.50;59.66;98890.38;4980346;28;102625;-58
2022/09/23 06:50:54;;;;;;;;;14.00;13.00;;;;;17.51;60.22;98899.44;4976409;28;102286;-57
2022/09/23 06:53:22;;;;;;;;;14.33;12.33;;;;;17.51;59.68;98897.53;4982738;28;103555;-57
2022/09/23 06:56:05;;;;;;;;;17.50;13.75;;;;;17.51;59.85;98903.00;4973239;28;102299;-57
2022/09/23 06:58:33;;;;;;;;;17.25;15.00;;;;;17.53;59.85;98908.22;4976815;28;102355;-57
2022/09/23 07:01:01;;;;;;;;;13.50;11.75;;;;;17.52;59.18;98909.28;4970418;28;102287;-57
2022/09/23 07:03:28;;;;;;;;;2.67;2.67;;;;;17.52;59.78;98910.09;4980661;28;104069;-57
2022/09/23 07:05:55;;;;;;;;;12.50;11.00;;;;;17.52;59.46;98915.56;4986835;28;102239;-57
2022/09/23 07:08:23;;;;;;;;;14.25;13.75;;;;;17.52;59.70;98903.81;4986139;28;102457;-57
2022/09/23 07:10:57;;;;;;;;;12.25;11.25;;;;;17.54;60.11;98907.16;4979905;28;102617;-57
2022/09/23 07:13:24;;;;;;;;;14.50;12.75;;;;;17.54;59.73;98898.94;4986903;28;104124;-55
2022/09/23 07:15:53;;;;;;;;;11.25;11.00;;;;;17.55;60.67;98904.19;4988176;28;102376;-55
2022/09/23 07:18:22;;;;;;;;;13.50;13.00;;;;;17.56;60.89;98905.81;4994227;28;102083;-55
2022/09/23 07:20:49;;;;;;;;;17.50;16.50;;;;;17.58;61.58;98901.00;4991496;28;102400;-55
2022/09/23 07:23:16;;;;;;;;;14.50;13.00;;;;;17.61;62.27;98897.78;4991738;28;104236;-55
2022/09/23 07:25:45;;;;;;;;;17.25;14.25;;;;;17.65;62.49;98900.88;4982785;28;102498;-55
2022/09/23 07:28:12;;;;;;;;;16.00;14.50;;;;;17.68;62.71;98909.44;4985270;28;102345;-55
2022/09/23 07:30:39;;;;;;;;;18.50;15.00;;;;;17.70;61.88;98915.47;4980727;27;103199;-55
2022/09/23 07:33:20;;;;;;;;;12.50;12.25;;;;;17.74;62.23;98902.97;4985000;28;104070;-54
2022/09/23 07:35:58;;;;;;;;;15.00;15.00;;;;;17.79;61.78;98919.50;4966919;28;102546;-55
2022/09/23 07:38:28;;;;;;;;;15.00;15.00;;;;;17.81;62.39;98919.28;4982587;28;102224;-55
2022/09/23 07:41:03;;;;;;;;;14.75;13.25;;;;;17.83;62.74;98923.44;4983858;28;102159;-55
2022/09/23 07:43:33;;;;;;;;;15.50;14.75;;;;;17.87;62.16;98922.97;4995679;27;103560;-55
2022/09/23 07:46:02;;;;;;;;;11.75;10.00;;;;;17.88;61.65;98919.16;4996065;27;102531;-55
2022/09/23 07:48:29;;;;;;;;;20.50;15.50;;;;;17.90;61.66;98917.84;4989131;28;102302;-55
2022/09/23 07:51:05;;;;;;;;;16.50;13.75;;;;;17.92;62.55;98914.88;4987448;28;102618;-55
2022/09/23 07:53:32;;;;;;;;;16.25;15.00;;;;;17.94;61.70;98920.94;4974630;28;109403;-55
2022/09/23 07:55:59;;;;;;;;;16.50;13.50;;;;;17.96;61.88;98921.53;4993275;28;102227;-55
2022/09/23 07:58:26;;;;;;;;;17.75;14.00;;;;;17.97;61.84;98918.53;4982139;28;102643;-55
2022/09/23 08:00:53;;;;;;;;;16.00;14.00;;;;;18.00;62.17;98919.97;4991602;28;102431;-55
2022/09/23 08:03:20;;;;;;;;;14.50;14.50;;;;;18.02;61.51;98920.53;4990086;28;104168;-55
2022/09/23 08:05:47;;;;;;;;;15.25;13.50;;;;;18.02;61.38;98909.59;4997114;27;105139;-55
2022/09/23 08:08:14;;;;;;;;;15.50;14.75;;;;;18.04;61.77;98918.41;5009255;27;102144;-55
2022/09/23 08:10:41;;;;;;;;;13.75;13.00;;;;;18.06;61.76;98916.25;4995257;28;102538;-55
2022/09/23 08:13:08;;;;;;;;;14.50;14.00;;;;;18.07;62.21;98913.28;4993690;28;104071;-55
2022/09/23 08:15:35;;;;;;;;;18.50;17.25;;;;;18.10;61.35;98920.19;4995279;28;102090;-55
2022/09/23 08:18:03;;;;;;;;;14.75;14.50;;;;;18.12;61.55;98923.50;4994598;28;102132;-55
2022/09/23 08:20:46;;;;;;;;;15.00;15.00;;;;;18.13;61.74;98909.59;4994844;28;102629;-55
2022/09/23 08:23:14;;;;;;;;;15.00;13.75;;;;;18.16;62.24;98913.75;5007136;27;108805;-55
2022/09/23 08:25:41;;;;;;;;;13.00;12.00;;;;;18.17;61.82;98912.66;4986735;27;102225;-55
2022/09/23 08:28:15;;;;;;;;;16.25;14.75;;;;;18.18;61.98;98917.06;5022980;27;104447;-55
2022/09/23 08:30:43;;;;;;;;;18.75;16.50;;;;;18.19;61.98;98916.00;5004949;27;102419;-55
2022/09/23 08:33:10;;;;;;;;;15.00;14.50;;;;;18.21;61.94;98908.38;4993879;27;104237;-55
2022/09/23 08:35:37;;;;;;;;;14.75;14.00;;;;;18.21;61.87;98903.72;4977913;28;102306;-55
2022/09/23 08:38:05;;;;;;;;;16.67;14.67;;;;;18.23;61.93;98901.59;4992220;28;102501;-55
2022/09/23 08:40:36;;;;;;;;;16.25;15.00;;;;;18.24;61.19;98891.44;4983960;28;102325;-55
2022/09/23 08:43:33;;;;;;;;;15.25;14.25;;;;;18.25;61.71;98895.84;4994281;28;108985;-55
2022/09/23 08:46:04;;;;;;;;;16.50;14.75;;;;;18.28;61.65;98898.13;4984223;28;102340;-55
2022/09/23 08:48:34;;;;;;;;;19.50;15.00;;;;;18.28;61.83;98898.13;4969812;28;102409;-55
2022/09/23 08:51:04;;;;;;;;;15.33;14.67;;;;;18.29;61.36;98895.13;4981840;28;102438;-55
2022/09/23 08:53:33;;;;;;;;;19.25;16.00;;;;;18.31;61.83;98896.81;4988521;28;104132;-55
2022/09/23 08:56:21;;;;;;;;;17.25;17.00;;;;;18.33;61.63;98891.94;4991857;27;102447;-55
2022/09/23 08:59:27;;;;;;;;;14.67;14.00;;;;;18.34;61.30;98897.13;5004777;28;102368;-55
2022/09/23 09:01:59;;;;;;;;;17.67;14.00;;;;;18.35;61.37;98892.50;5010290;27;102695;-55
2022/09/23 09:04:47;;;;;;;;;17.33;14.33;;;;;18.36;61.46;98895.00;4976405;28;104097;-55
2022/09/23 09:07:17;;;;;;;;;15.67;12.67;;;;;18.38;61.75;98890.09;4978920;28;103000;-55
2022/09/23 09:10:05;;;;;;;;;12.33;12.33;;;;;18.40;61.35;98895.34;4995229;27;105040;-55
2022/09/23 09:12:46;;;;;;;;;17.33;15.00;;;;;18.40;61.12;98900.81;5002925;27;102603;-55
2022/09/23 09:15:13;;;;;;;;;16.00;15.00;;;;;18.40;61.16;98887.97;4989235;28;108931;-55
2022/09/23 09:17:58;;;;;;;;;16.00;14.00;;;;;18.41;61.27;98894.28;4979454;28;102322;-55
2022/09/23 09:20:49;;;;;;;;;15.00;14.00;;;;;18.42;61.24;98894.00;4974787;28;102610;-55
2022/09/23 09:23:16;;;;;;;;;14.00;14.00;;;;;18.42;61.69;98899.47;4988560;28;102224;-55
2022/09/23 09:25:48;;;;;;;;;16.00;15.00;;;;;18.43;60.89;98897.56;4994386;27;104174;-55
2022/09/23 09:28:23;;;;;;;;;13.00;12.75;;;;;18.43;61.25;98887.47;4958373;28;102384;-55
2022/09/23 09:30:54;;;;;;;;;15.00;14.67;;;;;18.44;61.41;98883.66;4977801;28;102469;-55
2022/09/23 09:33:26;;;;;;;;;14.00;13.00;;;;;18.45;61.63;98888.06;5007822;27;102526;-55
2022/09/23 09:36:07;;;;;;;;;12.00;11.33;;;;;18.46;61.63;98888.91;4960186;28;104088;-55
2022/09/23 09:38:35;;;;;;;;;13.00;11.00;;;;;18.46;61.46;98878.75;4988077;28;102326;-55
2022/09/23 09:41:14;;;;;;;;;15.00;14.00;;;;;18.48;60.99;98875.78;4979223;28;102529;-55
2022/09/23 09:43:41;;;;;;;;;17.00;15.00;;;;;18.49;61.55;98875.53;4971204;28;102505;-55
2022/09/23 09:46:24;;;;;;;;;15.00;14.00;;;;;18.51;61.26;98869.78;4965554;28;104114;-55
2022/09/23 09:49:01;;;;;;;;;15.67;14.00;;;;;18.52;60.92;98865.97;4981152;28;102484;-55
2022/09/23 09:51:28;;;;;;;;;14.67;12.00;;;;;18.52;61.58;98871.47;4986848;28;102509;-55
2022/09/23 09:54:16;;;;;;;;;15.67;14.33;;;;;18.53;61.47;98863.03;4974052;28;102332;-55
2022/09/23 09:56:43;;;;;;;;;14.00;14.00;;;;;18.54;61.37;98858.41;4984967;28;108777;-55
2022/09/23 09:59:14;;;;;;;;;14.00;13.67;;;;;18.55;61.16;98860.88;4974056;28;102570;-55
2022/09/23 10:01:41;;;;;;;;;18.25;16.00;;;;;18.56;60.99;98853.50;4983646;28;102258;-55
2022/09/23 10:04:32;;;;;;;;;16.33;16.00;;;;;18.55;60.83;98852.66;4989476;28;102652;-56
2022/09/23 10:07:08;;;;;;;;;13.67;13.67;;;;;18.56;60.71;98846.09;4989405;28;104267;-55
2022/09/23 10:09:36;;;;;;;;;14.00;13.67;;;;;18.57;60.97;98856.00;4984769;28;103105;-55
2022/09/23 10:12:09;;;;;;;;;13.33;12.00;;;;;18.57;61.02;98847.78;4975683;28;102241;-55
2022/09/23 10:14:37;;;;;;;;;14.00;13.67;;;;;18.59;61.50;98853.03;4986602;28;102496;-55
2022/09/23 10:17:05;;;;;;;;;13.67;12.00;;;;;18.61;60.94;98848.09;4974008;28;108893;-55
2022/09/23 10:19:34;;;;;;;;;12.67;11.67;;;;;18.62;61.00;98852.50;4976866;28;102565;-55
2022/09/23 10:22:04;;;;;;;;;15.67;14.00;;;;;18.62;61.10;98838.81;4973549;28;102313;-55
2022/09/23 10:24:33;;;;;;;;;12.67;11.33;;;;;18.62;60.63;98839.66;4979453;28;102463;-55
2022/09/23 10:27:03;;;;;;;;;14.33;13.33;;;;;18.64;61.23;98837.47;4957969;28;104060;-55
2022/09/23 10:29:32;;;;;;;;;15.33;13.33;;;;;18.65;61.49;98839.16;4969521;28;102420;-55
2022/09/23 10:32:18;;;;;;;;;12.67;12.67;;;;;18.66;60.96;98839.97;4967454;28;101904;-55
2022/09/23 10:34:50;;;;;;;;;15.00;13.00;;;;;18.66;61.51;98829.88;4987119;28;102221;-55
2022/09/23 10:37:22;;;;;;;;;14.67;14.00;;;;;18.67;61.34;98836.19;4960228;28;104259;-55
2022/09/23 10:49:08;;;;;;;;;11.33;10.67;;;;;18.69;61.16;98817.56;4897020;28;108685;-55
2022/09/23 10:51:38;;;;;;;;;11.33;10.67;;;;;18.70;60.62;98828.28;4958046;28;103145;-55
2022/09/23 10:54:32;;;;;;;;;12.00;11.00;;;;;18.70;60.90;98822.81;4967551;28;103278;-55
2022/09/23 10:57:43;;;;;;;;;13.00;12.00;;;;;18.70;61.28;98822.81;4981611;28;102322;-55
2022/09/23 11:00:16;;;;;;;;;14.00;12.67;;;;;18.73;60.90;98820.66;4953839;28;109677;-55
2022/09/23 11:02:44;;;;;;;;;14.00;13.33;;;;;18.73;61.49;98826.16;4966483;28;102385;-55
2022/09/23 11:05:36;;;;;;;;;13.00;13.00;;;;;18.73;60.76;98821.50;4966705;28;102165;-55
2022/09/23 11:08:57;;;;;;;;;13.67;13.00;;;;;18.76;61.01;98820.16;4961221;28;102459;-55
2022/09/23 11:11:38;;;;;;;;;14.00;13.33;;;;;18.77;60.94;98810.88;4939128;28;108272;-55
2022/09/23 11:14:27;;;;;;;;;13.00;12.33;;;;;18.77;60.48;98806.22;4967849;28;102063;-55
2022/09/23 11:17:17;;;;;;;;;14.00;13.00;;;;;18.79;60.82;98801.31;4968823;28;102638;-55
2022/09/23 11:20:08;;;;;;;;;12.67;11.33;;;;;18.79;60.52;98797.72;4972715;28;102214;-55
2022/09/23 11:23:01;;;;;;;;;15.33;14.33;;;;;18.80;60.89;98796.66;4958773;28;108868;-55
2022/09/23 11:25:41;;;;;;;;;12.00;12.00;;;;;18.80;60.70;98794.75;4975816;28;102541;-55
2022/09/23 11:28:28;;;;;;;;;12.33;11.00;;;;;18.81;60.57;98788.19;4968203;28;102439;-56
2022/09/23 11:31:08;;;;;;;;;12.33;12.00;;;;;18.81;60.66;98793.69;4978671;28;102516;-55
2022/09/23 11:33:55;;;;;;;;;13.00;11.67;;;;;18.82;60.78;98789.03;4972298;28;108875;-55
2022/09/23 11:36:26;;;;;;;;;13.00;12.67;;;;;18.82;60.80;98781.66;4974653;28;103314;-55
2022/09/23 11:38:54;;;;;;;;;11.00;10.00;;;;;18.84;60.71;98781.38;4982797;28;102651;-55
2022/09/23 11:41:27;;;;;;;;;13.00;12.33;;;;;18.85;60.68;98777.56;4965748;28;102567;-55
2022/09/23 11:44:16;;;;;;;;;12.67;12.33;;;;;18.85;60.62;98777.56;4954907;28;104093;-55
2022/09/23 11:46:50;;;;;;;;;10.33;10.00;;;;;18.86;60.50;98777.31;4964100;28;103235;-55